createdAt,value
2023-02-03T00:02:04.119Z,98566.84
2023-02-03T00:05:06.640Z,98568.28
2023-02-03T00:08:09.624Z,98577.66
2023-02-03T00:11:11.676Z,98566.66
2023-02-03T00:14:13.648Z,98589.97
2023-02-03T00:17:15.585Z,98586.03
2023-02-03T00:20:17.641Z,98584.72
2023-02-03T00:23:19.752Z,98598.69
2023-02-03T00:26:21.780Z,98593.78
2023-02-03T00:29:26.126Z,98594.41
2023-02-03T00:32:28.491Z,98593.44
2023-02-03T00:35:31.406Z,98543.00
2023-02-03T00:38:33.553Z,98562.38
2023-02-03T00:41:35.526Z,98583.44
2023-02-03T00:44:37.512Z,98594.09
2023-02-03T00:47:39.458Z,98586.03
2023-02-03T00:50:41.928Z,98572.91
2023-02-03T00:53:43.942Z,98597.53
2023-02-03T00:56:45.986Z,98592.63
2023-02-03T00:59:48.021Z,98580.63
2023-02-03T01:02:50.030Z,98582.59
2023-02-03T01:05:52.047Z,98579.47
2023-02-03T01:08:54.819Z,98573.69
2023-02-03T01:11:56.785Z,98566.16
2023-02-03T01:14:59.125Z,98567.31
2023-02-03T01:18:01.170Z,98559.09
2023-02-03T01:21:20.706Z,98560.06
2023-02-03T01:24:22.826Z,98558.94
2023-02-03T01:27:24.808Z,98535.13
2023-02-03T01:30:26.839Z,98478.34
2023-02-03T01:33:29.092Z,98544.66
2023-02-03T01:36:32.821Z,98542.50
2023-02-03T01:39:37.551Z,98507.56
2023-02-03T01:42:39.543Z,98536.63
2023-02-03T01:45:41.618Z,98535.47
2023-02-03T01:48:43.761Z,98528.72
2023-02-03T01:51:47.044Z,98515.78
2023-02-03T01:54:52.707Z,98541.69
2023-02-03T01:58:16.235Z,98538.41
2023-02-03T02:01:19.715Z,98532.81
2023-02-03T02:04:26.829Z,98522.00
2023-02-03T02:07:29.685Z,98519.00
2023-02-03T02:10:32.572Z,98510.00
2023-02-03T02:13:36.136Z,98504.91
2023-02-03T02:17:06.124Z,98525.25
2023-02-03T02:20:31.738Z,98511.94
2023-02-03T02:24:08.682Z,98505.53
2023-02-03T02:27:29.355Z,98512.63
2023-02-03T02:31:02.168Z,98506.06
2023-02-03T02:34:28.536Z,98501.31
2023-02-03T02:37:53.608Z,98508.88
2023-02-03T02:41:14.958Z,98501.00
2023-02-03T02:44:25.718Z,98483.25
2023-02-03T02:47:27.839Z,98485.72
2023-02-03T02:50:35.212Z,98481.63
2023-02-03T02:53:42.963Z,98478.19
2023-02-03T02:56:50.050Z,98481.63
2023-02-03T02:59:52.112Z,98468.31
2023-02-03T03:02:54.377Z,98465.22
2023-02-03T03:06:06.408Z,98465.84
2023-02-03T03:09:44.423Z,98456.34
2023-02-03T03:12:51.449Z,98447.97
2023-02-03T03:15:56.610Z,98450.22
2023-02-03T03:19:06.375Z,98437.41
2023-02-03T03:22:11.851Z,98451.22
2023-02-03T03:25:18.191Z,98438.88
2023-02-03T03:28:30.981Z,98432.16
2023-02-03T03:31:33.174Z,98428.88
2023-02-03T03:34:35.852Z,98428.72
2023-02-03T03:37:56.880Z,98411.50
2023-02-03T03:41:08.861Z,98404.88
2023-02-03T03:44:15.745Z,98403.28
2023-02-03T03:47:31.274Z,98394.25
2023-02-03T03:50:38.468Z,98395.53
2023-02-03T03:53:43.392Z,98399.66
2023-02-03T03:56:57.183Z,98400.13
2023-02-03T04:00:00.800Z,98400.13
2023-02-03T04:03:11.063Z,98397.00
2023-02-03T04:06:13.483Z,98397.84
2023-02-03T04:09:15.547Z,98404.56
2023-02-03T04:12:24.246Z,98406.22
2023-02-03T04:15:26.853Z,98387.16
2023-02-03T04:18:28.850Z,98377.66
2023-02-03T04:21:30.757Z,98365.16
2023-02-03T04:24:32.681Z,98379.09
2023-02-03T04:27:36.133Z,98383.72
2023-02-03T04:30:38.191Z,98371.38
2023-02-03T04:33:40.321Z,98371.03
2023-02-03T04:36:42.268Z,98374.97
2023-02-03T04:39:44.326Z,98338.25
2023-02-03T04:42:46.280Z,98368.50
2023-02-03T04:45:48.232Z,98360.75
2023-02-03T04:48:50.229Z,98356.50
2023-02-03T04:51:52.144Z,98354.00
2023-02-03T04:54:54.190Z,98321.38
2023-02-03T04:57:57.834Z,98332.56
2023-02-03T05:01:07.976Z,98348.75
2023-02-03T05:04:10.037Z,98340.03
2023-02-03T05:07:11.992Z,98347.81
2023-02-03T05:10:13.974Z,98336.66
2023-02-03T05:13:15.997Z,98344.34
2023-02-03T05:16:17.940Z,98338.94
2023-02-03T05:19:19.951Z,98325.09
2023-02-03T05:22:21.923Z,98329.47
2023-02-03T05:25:23.904Z,98317.00
2023-02-03T05:28:26.485Z,98320.06
2023-02-03T05:31:28.466Z,98316.09
2023-02-03T05:34:30.407Z,98327.50
2023-02-03T05:37:32.390Z,98322.91
2023-02-03T05:40:52.672Z,98321.34
2023-02-03T05:43:54.655Z,98305.31
2023-02-03T05:46:58.531Z,98321.41
2023-02-03T05:50:00.458Z,98313.03
2023-02-03T05:53:04.748Z,98303.88
2023-02-03T05:56:06.921Z,98322.94
2023-02-03T05:59:09.182Z,98318.97
2023-02-03T06:02:11.084Z,98297.53
2023-02-03T06:05:13.001Z,98292.28
2023-02-03T06:08:15.874Z,98287.25
2023-02-03T06:11:18.091Z,98285.75
2023-02-03T06:14:20.188Z,98293.34
2023-02-03T06:17:22.101Z,98302.06
2023-02-03T06:20:24.017Z,98303.03
2023-02-03T06:23:26.025Z,98285.47
2023-02-03T06:26:27.998Z,98288.78
2023-02-03T06:29:29.906Z,98274.81
2023-02-03T06:32:31.933Z,98260.22
2023-02-03T06:35:34.032Z,98250.22
2023-02-03T06:38:36.190Z,98285.28
2023-02-03T06:41:38.426Z,98265.56
2023-02-03T06:44:40.348Z,98269.59
2023-02-03T06:47:44.759Z,98270.06
2023-02-03T06:50:48.659Z,98252.38
2023-02-03T06:53:51.483Z,98240.84
2023-02-03T06:56:53.376Z,98257.47
2023-02-03T06:59:55.292Z,98244.38
2023-02-03T07:02:58.521Z,98246.88
2023-02-03T07:06:00.439Z,98236.41
2023-02-03T07:09:04.744Z,98255.94
2023-02-03T07:12:08.046Z,98250.94
2023-02-03T07:15:11.193Z,98251.13
2023-02-03T07:18:18.028Z,98262.66
2023-02-03T07:21:23.557Z,98200.28
2023-02-03T07:24:25.496Z,98253.03
2023-02-03T07:27:28.360Z,98236.94
2023-02-03T07:30:30.626Z,98252.84
2023-02-03T07:33:32.833Z,98252.75
2023-02-03T07:36:34.746Z,98227.94
2023-02-03T07:39:36.696Z,98251.66
2023-02-03T07:42:44.821Z,98227.59
2023-02-03T07:45:46.827Z,98223.00
2023-02-03T07:48:48.733Z,98228.53
2023-02-03T07:51:50.634Z,98208.22
2023-02-03T07:54:52.554Z,98214.09
2023-02-03T07:57:58.790Z,98227.59
2023-02-03T08:01:00.996Z,98227.41
2023-02-03T08:04:05.448Z,98211.53
2023-02-03T08:07:07.431Z,98203.63
2023-02-03T08:10:12.344Z,98195.34
2023-02-03T08:13:14.652Z,98244.69
2023-02-03T08:16:16.909Z,98203.75
2023-02-03T08:19:18.864Z,98211.84
2023-02-03T08:22:20.753Z,98195.84
2023-02-03T08:25:22.885Z,98191.41
2023-02-03T08:28:25.058Z,98237.16
2023-02-03T08:31:27.178Z,98175.75
2023-02-03T08:34:29.498Z,98191.22
2023-02-03T08:37:32.842Z,98169.19
2023-02-03T08:40:34.914Z,98146.56
2023-02-03T08:43:37.263Z,98123.75
2023-02-03T08:46:44.213Z,98158.94
2023-02-03T08:49:46.381Z,98137.50
2023-02-03T08:52:48.388Z,98146.47
2023-02-03T08:55:50.411Z,98167.34
2023-02-03T08:58:54.398Z,98178.78
2023-02-03T09:01:59.977Z,98138.00
2023-02-03T09:05:02.243Z,98150.38
2023-02-03T09:08:04.535Z,98154.41
2023-02-03T09:11:15.217Z,98159.34
2023-02-03T09:14:17.294Z,98141.28
2023-02-03T09:17:19.248Z,98123.69
2023-02-03T09:20:21.410Z,98115.81
2023-02-03T09:23:23.545Z,98095.31
2023-02-03T09:26:25.556Z,98094.91
2023-02-03T09:29:27.584Z,98091.94
2023-02-03T09:32:29.612Z,98051.28
2023-02-03T09:35:31.675Z,98076.53
2023-02-03T09:38:34.616Z,98073.16
2023-02-03T09:42:20.943Z,98049.94
2023-02-03T09:45:22.879Z,98064.00
2023-02-03T09:48:32.555Z,98058.47
2023-02-03T09:52:03.647Z,98053.41
2023-02-03T09:55:23.610Z,98060.53
2023-02-03T09:58:34.725Z,98034.22
2023-02-03T10:01:55.016Z,98062.75
2023-02-03T10:05:04.865Z,98044.00
2023-02-03T10:08:12.646Z,98087.38
2023-02-03T10:11:49.888Z,98037.94
2023-02-03T10:15:17.529Z,98015.13
2023-02-03T10:18:25.488Z,98030.00
2023-02-03T10:21:41.608Z,98044.44
2023-02-03T10:24:49.675Z,97993.91
2023-02-03T10:27:55.897Z,97987.56
2023-02-03T10:31:00.745Z,97974.56
2023-02-03T10:34:17.237Z,97973.13
2023-02-03T10:37:38.241Z,97978.53
2023-02-03T10:40:40.228Z,97956.41
2023-02-03T10:43:48.692Z,97975.59
2023-02-03T10:46:50.713Z,97917.59
2023-02-03T10:49:55.319Z,97932.56
2023-02-03T10:53:18.780Z,97885.06
2023-02-03T10:56:32.520Z,97903.94
2023-02-03T10:59:37.471Z,97908.03
2023-02-03T11:02:39.590Z,97904.16
2023-02-03T11:05:43.422Z,97882.38
2023-02-03T11:08:48.127Z,97893.53
2023-02-03T11:12:13.179Z,97918.00
2023-02-03T11:15:15.712Z,97918.66
2023-02-03T11:18:51.244Z,97912.09
2023-02-03T11:21:56.957Z,97919.50
2023-02-03T11:25:00.620Z,97921.91
2023-02-03T11:28:08.227Z,97936.59
2023-02-03T11:31:31.764Z,97917.69
2023-02-03T11:34:38.180Z,97958.16
2023-02-03T11:37:42.214Z,97901.81
2023-02-03T11:40:44.201Z,97872.31
2023-02-03T11:43:47.505Z,97857.06
2023-02-03T11:47:12.050Z,97862.53
2023-02-03T11:50:26.229Z,97891.84
2023-02-03T11:53:56.601Z,97841.00
2023-02-03T11:57:22.105Z,97831.47
2023-02-03T12:00:48.681Z,97830.22
2023-02-03T12:04:09.124Z,97801.69
2023-02-03T12:07:26.158Z,97780.53
2023-02-03T12:10:28.370Z,97798.06
2023-02-03T12:13:42.446Z,97780.53
2023-02-03T12:17:25.359Z,97777.94
2023-02-03T12:20:42.560Z,97756.97
2023-02-03T12:24:00.854Z,97761.66
2023-02-03T12:27:18.392Z,97720.16
2023-02-03T12:30:33.121Z,97737.28
2023-02-03T12:33:43.612Z,97748.63
2023-02-03T12:37:02.322Z,97709.00
2023-02-03T12:40:29.672Z,97722.75
2023-02-03T12:43:44.293Z,97715.50
2023-02-03T12:46:56.601Z,97750.06
2023-02-03T12:50:05.877Z,97720.84
2023-02-03T12:53:16.230Z,97693.25
2023-02-03T12:56:34.325Z,97654.66
2023-02-03T12:59:40.527Z,97663.38
2023-02-03T13:03:15.399Z,97677.84
2023-02-03T13:06:29.435Z,97643.50
2023-02-03T13:09:46.017Z,97649.25
2023-02-03T13:12:53.449Z,97647.53
2023-02-03T13:15:57.421Z,97642.63
2023-02-03T13:19:06.147Z,97600.06
2023-02-03T13:22:13.385Z,97647.13
2023-02-03T13:25:29.524Z,97655.56
2023-02-03T13:29:09.078Z,97622.00
2023-02-03T13:32:39.062Z,97611.63
2023-02-03T13:36:11.475Z,97600.13
2023-02-03T13:39:29.276Z,97596.22
2023-02-03T13:42:34.452Z,97625.91
2023-02-03T13:45:42.314Z,97601.72
2023-02-03T13:48:47.202Z,97618.34
2023-02-03T13:51:49.534Z,97628.31
2023-02-03T13:54:51.652Z,97614.53
2023-02-03T13:57:53.912Z,97621.31
2023-02-03T14:00:56.639Z,97658.59
2023-02-03T14:03:58.963Z,97591.81
2023-02-03T14:07:29.470Z,97611.97
2023-02-03T14:10:32.777Z,97594.00
2023-02-03T14:13:34.801Z,97626.84
2023-02-03T14:16:42.026Z,97632.75
2023-02-03T14:19:52.920Z,97630.72
2023-02-03T14:23:13.541Z,97634.59
2023-02-03T14:26:20.720Z,97629.91
2023-02-03T14:29:27.541Z,97624.84
2023-02-03T14:32:58.908Z,97658.78
2023-02-03T14:36:00.939Z,97636.47
2023-02-03T14:39:17.510Z,97630.38
2023-02-03T14:42:45.767Z,97639.72
2023-02-03T14:46:05.917Z,97659.63
2023-02-03T14:49:13.857Z,97658.41
2023-02-03T14:52:44.489Z,97647.25
2023-02-03T14:55:51.462Z,97641.16
2023-02-03T14:58:59.672Z,97662.25
2023-02-03T15:02:12.551Z,97634.25
2023-02-03T15:05:14.724Z,97664.91
2023-02-03T15:08:43.233Z,97654.16
2023-02-03T15:11:45.585Z,97631.44
2023-02-03T15:14:47.661Z,97675.25
2023-02-03T15:17:54.565Z,97661.88
2023-02-03T15:20:57.569Z,97677.28
2023-02-03T15:23:59.797Z,97657.81
2023-02-03T15:27:01.881Z,97655.56
2023-02-03T15:30:18.538Z,97630.81
2023-02-03T15:33:22.026Z,97634.47
2023-02-03T15:36:30.493Z,97641.34
2023-02-03T15:39:46.212Z,97572.97
2023-02-03T15:43:08.254Z,97612.31
2023-02-03T15:46:21.407Z,97579.28
2023-02-03T15:49:30.682Z,97587.59
2023-02-03T15:52:40.752Z,97612.75
2023-02-03T15:55:50.195Z,97619.22
2023-02-03T15:58:53.409Z,97617.59
2023-02-03T16:01:56.039Z,97606.44
2023-02-03T16:04:59.019Z,97588.59
2023-02-03T16:08:36.170Z,97610.47
2023-02-03T16:11:40.029Z,97623.84
2023-02-03T16:14:43.009Z,97593.38
2023-02-03T16:17:45.202Z,97598.66
2023-02-03T16:20:51.835Z,97527.28
2023-02-03T16:23:53.833Z,97594.63
2023-02-03T16:26:55.859Z,97577.31
2023-02-03T16:30:25.532Z,97578.94
2023-02-03T16:33:50.938Z,97579.69
2023-02-03T16:37:11.757Z,97546.41
2023-02-03T16:40:37.496Z,97571.75
2023-02-03T16:43:57.963Z,97571.56
2023-02-03T16:47:18.533Z,97595.06
2023-02-03T16:50:41.901Z,97594.03
2023-02-03T16:53:45.647Z,97537.56
2023-02-03T16:56:47.659Z,97542.78
2023-02-03T16:59:50.027Z,97600.34
2023-02-03T17:02:52.379Z,97591.75
2023-02-03T17:05:55.797Z,97584.03
2023-02-03T17:08:58.997Z,97560.69
2023-02-03T17:12:04.833Z,97560.31
2023-02-03T17:15:07.759Z,97568.81
2023-02-03T17:18:10.133Z,97577.72
2023-02-03T17:21:17.335Z,97558.59
2023-02-03T17:24:20.268Z,97553.94
2023-02-03T17:27:23.053Z,97568.59
2023-02-03T17:30:25.516Z,97576.06
2023-02-03T17:33:29.251Z,97589.47
2023-02-03T17:36:31.487Z,97549.84
2023-02-03T17:56:18.357Z,97510.63
2023-02-03T17:59:20.423Z,97533.59
2023-02-03T18:02:23.042Z,97502.88
2023-02-03T18:05:25.435Z,97506.72
2023-02-03T18:08:27.970Z,97568.69
2023-02-03T18:11:32.485Z,97542.34
2023-02-03T18:14:35.513Z,97575.38
2023-02-03T18:17:38.309Z,97589.44
2023-02-03T18:20:41.391Z,97609.06
2023-02-03T18:23:44.173Z,97663.56
2023-02-03T18:26:52.498Z,97685.56
2023-02-03T18:29:55.070Z,97730.03
2023-02-03T18:33:02.213Z,97716.06
2023-02-03T18:36:06.173Z,97694.72
2023-02-03T18:39:12.332Z,97721.28
2023-02-03T18:42:15.972Z,97734.03
2023-02-03T18:45:20.072Z,97694.91
2023-02-03T18:48:23.273Z,97700.56
2023-02-03T18:51:27.672Z,97698.75
2023-02-03T18:54:31.220Z,97691.25
2023-02-03T18:57:34.606Z,97691.66
2023-02-03T19:00:38.386Z,97666.28
2023-02-03T19:03:41.458Z,97705.84
2023-02-03T19:06:46.350Z,97664.25
2023-02-03T19:09:49.261Z,97657.97
2023-02-03T19:12:52.365Z,97677.66
2023-02-03T19:15:55.668Z,97645.00
2023-02-03T19:19:02.160Z,97668.97
2023-02-03T19:22:05.479Z,97672.38
2023-02-03T19:25:10.832Z,97657.59
2023-02-03T19:28:20.220Z,97659.63
2023-02-03T19:31:31.849Z,97665.91
2023-02-03T19:34:35.180Z,97659.63
2023-02-03T19:37:38.036Z,97657.19
2023-02-03T19:40:40.865Z,97617.84
2023-02-03T19:43:44.110Z,97686.00
2023-02-03T19:46:47.591Z,97673.63
2023-02-03T19:49:51.148Z,97700.81
2023-02-03T19:52:54.434Z,97689.44
2023-02-03T19:55:58.053Z,97702.44
2023-02-03T19:59:02.506Z,97702.25
2023-02-03T20:02:13.839Z,97671.59
2023-02-03T20:05:19.131Z,97693.72
2023-02-03T20:08:22.501Z,97709.53
2023-02-03T20:11:25.500Z,97696.34
2023-02-03T20:14:28.960Z,97715.66
2023-02-03T20:17:32.521Z,97714.03
2023-02-03T20:20:36.340Z,97706.28
2023-02-03T20:23:42.500Z,97706.50
2023-02-03T20:26:45.484Z,97706.09
2023-02-03T20:29:50.979Z,97703.25
2023-02-03T20:32:55.502Z,97702.63
2023-02-03T20:35:59.414Z,97714.41
2023-02-03T20:39:03.793Z,97693.31
2023-02-03T20:42:21.419Z,97708.53
2023-02-03T20:45:29.362Z,97702.84
2023-02-03T20:48:36.770Z,97697.78
2023-02-03T20:51:39.916Z,97668.16
2023-02-03T20:54:43.295Z,97701.44
2023-02-03T20:57:51.431Z,97688.44
2023-02-03T21:00:58.095Z,97680.31
2023-02-03T21:04:20.667Z,97690.47
2023-02-03T21:07:24.533Z,97646.44
2023-02-03T21:10:27.717Z,97673.44
2023-02-03T21:13:36.587Z,97668.38
2023-02-03T21:16:40.305Z,97661.84
2023-02-03T21:19:43.605Z,97655.16
2023-02-03T21:22:46.470Z,97655.97
2023-02-03T21:25:49.725Z,97646.22
2023-02-03T21:28:57.572Z,97655.38
2023-02-03T21:32:02.263Z,97656.78
2023-02-03T21:35:24.457Z,97645.03
2023-02-03T21:38:31.587Z,97552.75
2023-02-03T21:41:35.739Z,97668.34
2023-02-03T21:44:38.440Z,97667.53
2023-02-03T21:47:42.774Z,97683.56
2023-02-03T21:50:45.514Z,97685.81
2023-02-03T21:54:11.254Z,97691.69
2023-02-03T21:57:17.901Z,97643.00
2023-02-03T22:00:40.602Z,97682.97
2023-02-03T22:03:50.198Z,97681.16
2023-02-03T22:06:54.668Z,97670.59
2023-02-03T22:09:57.290Z,97663.47
2023-02-03T22:13:00.905Z,97670.59
2023-02-03T22:16:03.231Z,97646.03
2023-02-03T22:19:05.418Z,97677.88
2023-02-03T22:22:07.469Z,97668.97
2023-02-03T22:25:09.468Z,97681.53
2023-02-03T22:28:11.787Z,97674.06
2023-02-03T22:31:14.114Z,97682.75
2023-02-03T22:34:16.115Z,97673.63
2023-02-03T22:37:18.095Z,97676.47
2023-02-03T22:40:21.577Z,97666.94
2023-02-03T22:43:23.759Z,97680.31
2023-02-03T22:46:25.827Z,97683.78
2023-02-03T22:49:27.821Z,97684.38
2023-02-03T22:52:29.937Z,97649.91
2023-02-03T22:55:32.132Z,97665.69
2023-02-03T22:58:34.146Z,97679.50
2023-02-03T23:01:36.129Z,97693.72
2023-02-03T23:04:38.192Z,97663.88
2023-02-03T23:07:40.530Z,97693.91
2023-02-03T23:10:42.485Z,97695.75
2023-02-03T23:13:44.518Z,97679.09
2023-02-03T23:16:46.689Z,97697.94
2023-02-03T23:19:48.999Z,97703.03
2023-02-03T23:22:51.128Z,97681.53
2023-02-03T23:25:53.110Z,97703.41
2023-02-03T23:28:55.115Z,97687.38
2023-02-03T23:31:57.119Z,97693.09
2023-02-03T23:35:17.842Z,97698.78
2023-02-03T23:38:19.845Z,97705.66
2023-02-03T23:41:21.857Z,97712.16
2023-02-03T23:44:24.577Z,97720.47
2023-02-03T23:47:26.566Z,97712.78
2023-02-03T23:50:28.831Z,97712.75
2023-02-03T23:53:31.362Z,97726.78
2023-02-03T23:56:33.386Z,97721.53
2023-02-03T23:59:35.445Z,97738.59
